Flight Track Log - Related Links

Times and Time Zones

All times are in EDT time to prevent confusion due to time zone crossing. See the SWA2855 flight status page for this flight to view local times or setup timezone preferences in your user account.

Time Position Orientation Groundspeed Altitude Reporting Facility
EDT Latitude Longitude Course Direction KTS MPH feet Rate Location/Type
Wed 06:28:02 AM 39.1767 -76.7428 211° Southwest 172 198 2,500  Level Washington Center
Wed 06:28:31 AM 39.1833 -76.7667 290° West 197 227 3,800 2,966 Climbing Potomac TRACON
Wed 06:29:31 AM 39.2000 -76.8500 284° West 249 287 6,900 3,130 Climbing Potomac TRACON
Wed 06:30:26 AM 39.2167 -76.9333 284° West 260 299 9,800 2,972 Climbing Potomac TRACON
Wed 06:31:20 AM 39.2167 -77.0333 270° West 306 352 12,300 3,158 Climbing Potomac TRACON
Wed 06:32:20 AM 39.2000 -77.1500 260° West 353 406 15,800 3,185 Climbing Potomac TRACON
Wed 06:33:00 AM 39.1582 -77.1862 211° Southwest  Level FlightAware Approximate
Wed 06:34:02 AM 39.0703 -77.2975 221° Southwest 395 455 20,900  Level Washington Center
Wed 06:35:02 AM 39.0536 -77.4333 261° West 362 417 23,000 1,500 Climbing Washington Center
Wed 06:36:02 AM 39.0367 -77.5719 261° West 373 429 23,900 1,550 Climbing Washington Center
Wed 06:37:02 AM 39.0242 -77.6997 263° West 397 457 26,100 2,850 Climbing Washington Center
Wed 06:38:02 AM 39.0047 -77.8542 261° West 405 466 29,600 1,900 Climbing Washington Center
Wed 06:39:02 AM 38.9897 -77.9764 261° West 405 466 29,900 150 Climbing Washington Center
Wed 06:40:02 AM 38.9725 -78.1094 261° West 398 458 29,900  Level Washington Center
Wed 06:41:02 AM 38.9594 -78.2397 263° West 384 442 29,900  Level Washington Center
Wed 06:42:02 AM 38.9625 -78.3733 272° West 379 436 29,900 50 Level Washington Center
Wed 06:43:02 AM 38.9678 -78.5044 273° West 379 436 30,000  Climbing Washington Center
Wed 06:44:02 AM 38.9706 -78.6408 272° West 379 436 29,900  Descending Washington Center
Wed 06:45:02 AM 38.9756 -78.7717 273° West 379 436 30,000 50 Climbing Washington Center
Wed 06:46:02 AM 38.9783 -78.9000 272° West 379 436 30,000 -50 Level Washington Center
Wed 06:47:02 AM 38.9811 -79.0311 272° West 374 430 29,900 -50 Descending Washington Center
Wed 06:48:02 AM 38.9856 -79.1647 272° West 374 430 29,900 50 Level Washington Center
Wed 06:49:02 AM 38.9875 -79.2983 271° West 374 430 30,000  Climbing Washington Center
Wed 06:50:02 AM 38.9919 -79.4294 273° West 374 430 29,900  Descending Washington Center
Wed 06:51:02 AM 38.9939 -79.5606 271° West 374 430 30,000 50 Climbing Washington Center
Wed 06:52:02 AM 39.0011 -79.7133 274° West 382 440 30,000  Level Washington Center
Wed 06:53:02 AM 39.0028 -79.8442 271° West 382 440 30,000  Level Washington Center
Wed 06:54:02 AM 39.0028 -79.9644 270° West 382 440 30,000  Level Washington Center
Wed 06:55:02 AM 39.0061 -80.0981 272° West 382 440 30,000  Level Washington Center
Wed 06:55:43 AM 39.0053 -80.1911 269° West 376 433 30,000  Level Indianapolis Center
Wed 06:56:44 AM 39.0078 -80.3258 271° West 377 434 30,000  Level Indianapolis Center
Wed 06:57:44 AM 39.0119 -80.4603 272° West 378 435 30,000  Level Indianapolis Center
Wed 06:58:45 AM 39.0489 -80.5864 291° West 380 437 30,000 -98 Level Indianapolis Center
Wed 06:59:46 AM 39.0886 -80.7103 292° West 376 433 29,800 -639 Descending Indianapolis Center
Wed 07:00:47 AM 39.1278 -80.8319 293° West 371 427 28,700 -1,033 Descending Indianapolis Center
Wed 07:01:48 AM 39.1639 -80.9519 291° West 361 415 27,700 -992 Descending Indianapolis Center
Wed 07:02:48 AM 39.2011 -81.0656 293° West 350 403 26,700 -992 Descending Indianapolis Center
Wed 07:03:49 AM 39.2364 -81.1831 291° West 352 405 25,700 -1,033 Descending Indianapolis Center
Wed 07:04:50 AM 39.2792 -81.3211 292° West 347 399 24,600 -836 Descending Indianapolis Center
Wed 07:05:51 AM 39.3144 -81.4372 291° West 349 402 24,000 -393 Descending Indianapolis Center
Wed 07:06:52 AM 39.3497 -81.5525 292° West 349 402 23,800 -590 Descending Indianapolis Center
Wed 07:07:53 AM 39.3861 -81.6661 293° West 345 397 22,800 -934 Descending Indianapolis Center
Wed 07:08:54 AM 39.4217 -81.7869 291° West 358 412 21,900 -1,033 Descending Indianapolis Center
Wed 07:09:55 AM 39.4594 -81.9100 292° West 369 425 20,700 -2,041 Descending Indianapolis Center
Wed 07:10:31 AM 39.4817 -81.9900 290° West 367 422 18,600 -3,400 Descending Indianapolis Center
Wed 07:10:55 AM 39.4994 -82.0431 293° West 364 419 17,300 -2,721 Descending Indianapolis Center
Wed 07:11:57 AM 39.5336 -82.1594 291° West 362 417 14,700 -2,390 Descending Indianapolis Center
Wed 07:12:58 AM 39.5678 -82.2750 291° West 345 397 12,400 -1,918 Descending Indianapolis Center
Wed 07:13:59 AM 39.6014 -82.3814 292° West 325 374 10,800 -1,230 Descending Indianapolis Center
Wed 07:15:00 AM 39.6589 -82.4517 317° Northwest 294 338 9,900 -443 Descending Indianapolis Center
Wed 07:16:01 AM 39.7247 -82.5125 325° Northwest 288 331 9,900  Level Indianapolis Center
Wed 07:17:02 AM 39.7908 -82.5750 324° Northwest 291 335 9,900 -787 Level Indianapolis Center
Wed 07:18:03 AM 39.8558 -82.6331 326° Northwest 286 329 8,300 -1,721 Descending Indianapolis Center
Wed 07:19:04 AM 39.8983 -82.7006 309° West 262 302 6,400 -1,180 Descending Indianapolis Center
Wed 07:20:05 AM 39.9017 -82.7911 273° West 249 287 5,900 -344 Descending Indianapolis Center
Wed 07:21:06 AM 39.9042 -82.8808 272° West 246 283 5,700 -443 Descending Indianapolis Center
Wed 07:22:07 AM 39.9064 -82.9614 272° West 226 260 5,000 -885 Descending Indianapolis Center
Wed 07:23:08 AM 39.9078 -83.0347 271° West 207 238 3,900 -541 Descending Indianapolis Center
Wed 07:24:09 AM 39.9122 -83.1108 274° West 208 239 3,900  Level Indianapolis Center
Wed 07:25:10 AM 39.9739 -83.1300 347° North 202 232 3,900 -197 Level Indianapolis Center
Wed 07:26:11 AM 40.0050 -83.0861 47° Northeast 213 245 3,500 -608 Descending Indianapolis Center
Wed 07:26:29 AM 40.0044 -83.0656 92° East 193 222 3,100 -1,082 Descending Indianapolis Center
Wed 07:27:12 AM 40.0014 -83.0197 95° East 190 219 2,400 -818 Descending Indianapolis Center
Wed 07:27:35 AM 40.0006 -82.9997 93° East 165 190 2,200 -689 Descending Indianapolis Center
Wed 07:28:13 AM 39.9981 -82.9708 96° East 156 180 1,700 -655 Descending Indianapolis Center
Wed 07:28:30 AM 39.9972 -82.9586 95° East 114 131 1,600 -677 Descending Indianapolis Center
Wed 07:29:15 AM 39.9961 -82.9261 93° East 130 150 1,000 -800 Descending Indianapolis Center

Login

Don't have an account? Register now (free) for customized features, flight alerts, and more!